CheckWX is a tool to help pilots better visualize weather data.  It is not intended as a substitute for an official pre-flight weather briefing.

21:12:45 UTC

KDCA TAF
Ronald Reagan Washington National Airport
Washington, Virginia, USA
KDCA 162101Z 1621/1724 22011G18KT P6SM VCTS SCT040CB BKN050 FM170000 23007KT P6SM VCTS SCT050CB BKN060 FM170300 21006KT P6SM BKN050 FM171800 23006KT 6SM -SHRA VCTS BKN050CB

Jun-16@
21:00 UTC

Jun-16 @ 21:00 UTC

Jun-17@
00:00 UTC

Jun-17 @ 00:00 UTC

KDCA 162101Z 1621/1724 22011G18KT P6SM VCTS SCT040CB BKN050
Wind
  • 220° at 11 KTS
  • {Gusting to 18 KTS
Conditions
Area Thunderstorm
Cloud Levels
  • Scattered at 4,000' AGL
  • Broken at 5,000' AGL

Jun-17@
00:00 UTC

Jun-17 @ 00:00 UTC

Jun-17@
03:00 UTC

Jun-17 @ 03:00 UTC

FM170000 23007KT P6SM VCTS SCT050CB BKN060

From

From Standard forecast or significant change

Wind
  • 230° at 7 KTS
Conditions
Area Thunderstorm
Cloud Levels
  • Scattered at 5,000' AGL
  • Broken at 6,000' AGL

Jun-17@
03:00 UTC

Jun-17 @ 03:00 UTC

Jun-17@
18:00 UTC

Jun-17 @ 18:00 UTC

FM170300 21006KT P6SM BKN050

From

From Standard forecast or significant change

Wind
  • 210° at 6 KTS
Cloud Levels
  • Broken at 5,000' AGL

Jun-17@
18:00 UTC

Jun-17 @ 18:00 UTC

Jun-18@
00:00 UTC

Jun-18 @ 00:00 UTC

FM171800 23006KT 6SM -SHRA VCTS BKN050CB

From

From Standard forecast or significant change

Wind
  • 230° at 6 KTS
Conditions
Light Rain, Area Thunderstorm
Cloud Levels
  • Broken at 5,000' AGL